Time;durP1;ratioP1;P1;durP2;ratioP2;P2;SDS_P1;SDS_P2;PMS_P1;PMS_P2;Temp;Humidity;BMP_temperature;BMP_pressure;BME280_temperature;BME280_humidity;BME280_pressure;Samples;Min_cycle;Max_cycle;Signal;HPM_P1;HPM_P2
2023/08/06 00:01:11;;;;;;;1.40;0.65;;;19.60;99.90;;;;;;1916051;75;21183;-86
2023/08/06 00:04:03;;;;;;;1.05;0.70;;;19.40;99.90;;;;;;1891512;75;21175;-86
2023/08/06 00:06:54;;;;;;;0.65;0.50;;;19.40;99.90;;;;;;1890389;75;21259;-86
2023/08/06 00:09:45;;;;;;;0.98;0.60;;;19.30;99.90;;;;;;1892366;75;21546;-87
2023/08/06 00:15:19;;;;;;;0.98;0.75;;;19.30;99.90;;;;;;1950042;72;22251;-86
2023/08/06 00:18:10;;;;;;;0.93;0.60;;;19.20;99.90;;;;;;1931365;73;21187;-86
2023/08/06 00:21:02;;;;;;;0.93;0.50;;;19.10;99.90;;;;;;1916319;75;21062;-87
2023/08/06 00:23:53;;;;;;;0.60;0.50;;;19.10;99.90;;;;;;1924589;73;21185;-86
2023/08/06 00:26:43;;;;;;;0.82;0.62;;;19.10;99.90;;;;;;1917945;73;21102;-86
2023/08/06 00:29:35;;;;;;;0.85;0.53;;;19.10;99.90;;;;;;1929822;73;21082;-85
2023/08/06 00:32:25;;;;;;;2.15;0.60;;;19.10;99.90;;;;;;1918939;73;21130;-86
2023/08/06 00:35:17;;;;;;;0.60;0.50;;;19.00;99.90;;;;;;1916301;75;21072;-86
2023/08/06 00:38:09;;;;;;;0.80;0.62;;;18.90;99.90;;;;;;1916155;75;21129;-86
2023/08/06 00:41:00;;;;;;;0.90;0.60;;;18.90;99.90;;;;;;1919750;73;21140;-86
2023/08/06 00:43:52;;;;;;;0.72;0.60;;;19.00;99.90;;;;;;1916486;75;21188;-86
2023/08/06 00:46:43;;;;;;;1.02;0.60;;;19.00;99.90;;;;;;1917309;73;21140;-86
2023/08/06 00:52:14;;;;;;;0.75;0.53;;;19.00;99.90;;;;;;1953048;72;22177;-85
2023/08/06 00:55:07;;;;;;;1.17;0.60;;;19.00;99.90;;;;;;1919649;73;21655;-85
2023/08/06 00:57:59;;;;;;;1.00;0.50;;;19.20;99.90;;;;;;1927611;73;21127;-85
2023/08/06 01:00:52;;;;;;;1.20;0.70;;;19.10;99.90;;;;;;1920441;73;21110;-86
2023/08/06 01:03:43;;;;;;;1.15;0.50;;;19.00;99.90;;;;;;1927179;73;21141;-85
2023/08/06 01:06:39;;;;;;;0.70;0.60;;;19.10;99.90;;;;;;1916374;73;21154;-85
2023/08/06 01:12:19;;;;;;;1.67;0.65;;;19.20;99.90;;;;;;1959024;72;22232;-85
2023/08/06 01:15:20;;;;;;;0.75;0.60;;;19.20;99.90;;;;;;1928564;73;21384;-86
2023/08/06 01:18:12;;;;;;;0.95;0.50;;;19.20;99.90;;;;;;1921590;73;21625;-86
2023/08/06 01:21:03;;;;;;;1.40;0.90;;;19.20;99.90;;;;;;1944158;73;21169;-86
2023/08/06 01:23:55;;;;;;;0.95;0.62;;;19.10;99.90;;;;;;1916480;73;21198;-86
2023/08/06 01:26:51;;;;;;;1.42;0.72;;;19.00;99.90;;;;;;1924485;73;21123;-86
2023/08/06 01:29:45;;;;;;;1.62;0.50;;;19.00;99.90;;;;;;1934830;73;21117;-86
2023/08/06 01:32:39;;;;;;;1.00;0.70;;;18.90;99.90;;;;;;1912198;74;21128;-86
2023/08/06 01:38:11;;;;;;;1.77;0.75;;;18.90;99.90;;;;;;1946887;72;22639;-86
2023/08/06 01:41:02;;;;;;;1.40;0.60;;;18.80;99.90;;;;;;1939840;73;21198;-85
2023/08/06 01:43:53;;;;;;;1.35;0.60;;;18.80;99.90;;;;;;1916407;75;21141;-86
2023/08/06 01:46:44;;;;;;;2.65;0.70;;;18.80;99.90;;;;;;1916424;73;21146;-86
2023/08/06 01:52:14;;;;;;;2.37;0.60;;;18.80;99.90;;;;;;1928760;72;22193;-86
2023/08/06 01:57:50;;;;;;;1.02;0.62;;;18.90;99.90;;;;;;1946306;72;22216;-85
2023/08/06 02:00:41;;;;;;;1.15;0.60;;;18.80;99.90;;;;;;1926951;73;21209;-86
2023/08/06 02:03:32;;;;;;;0.60;0.47;;;18.80;99.90;;;;;;1919614;73;21149;-86
2023/08/06 02:09:03;;;;;;;0.53;0.45;;;18.80;99.90;;;;;;1941487;72;22174;-86
2023/08/06 02:11:59;;;;;;;0.80;0.70;;;18.80;99.90;;;;;;1901789;75;21526;-86
2023/08/06 02:17:29;;;;;;;1.57;0.50;;;18.80;99.90;;;;;;1956120;72;22241;-86
2023/08/06 02:20:21;;;;;;;0.72;0.50;;;18.80;99.90;;;;;;1917714;73;21183;-86
2023/08/06 02:23:12;;;;;;;1.17;0.60;;;18.80;99.90;;;;;;1941178;73;21152;-87
2023/08/06 02:26:07;;;;;;;0.75;0.50;;;18.80;99.90;;;;;;1903106;75;21114;-86
2023/08/06 02:31:38;;;;;;;1.55;0.62;;;18.80;99.90;;;;;;1934588;72;22165;-86
2023/08/06 02:37:10;;;;;;;0.93;0.70;;;18.80;99.90;;;;;;1940465;72;22219;-85
2023/08/06 02:42:44;;;;;;;0.65;0.40;;;18.70;99.90;;;;;;1925880;72;22161;-87
2023/08/06 02:45:35;;;;;;;1.10;0.70;;;18.70;99.90;;;;;;1885574;75;21179;-88
2023/08/06 02:48:27;;;;;;;1.77;0.62;;;18.60;99.90;;;;;;1906421;75;21153;-87
2023/08/06 02:51:20;;;;;;;0.82;0.40;;;18.60;99.90;;;;;;1914803;75;21091;-86
2023/08/06 02:56:56;;;;;;;1.10;0.68;;;18.60;99.90;;;;;;1949366;72;22232;-86
2023/08/06 03:02:28;;;;;;;0.78;0.50;;;18.60;99.90;;;;;;1942045;72;22229;-86
2023/08/06 03:05:25;;;;;;;1.90;0.67;;;18.60;99.90;;;;;;1911603;75;21169;-86
2023/08/06 03:08:22;;;;;;;1.10;0.40;;;18.60;99.90;;;;;;1888416;75;21779;-88
2023/08/06 03:11:09;;;;;;;2.62;0.50;;;18.70;99.90;;;;;;1890992;75;21176;-88
2023/08/06 03:14:01;;;;;;;2.00;0.70;;;18.80;99.90;;;;;;1897571;75;21176;-88
2023/08/06 03:16:53;;;;;;;1.07;0.40;;;18.80;99.90;;;;;;1907608;75;21164;-88
2023/08/06 03:19:44;;;;;;;1.32;0.60;;;18.80;99.90;;;;;;1896648;75;21126;-86
2023/08/06 03:22:37;;;;;;;1.32;0.50;;;18.80;99.90;;;;;;1895289;75;21094;-86
2023/08/06 03:25:28;;;;;;;1.47;0.60;;;18.80;99.90;;;;;;1885784;74;21150;-86
2023/08/06 03:28:20;;;;;;;1.05;0.40;;;18.80;99.90;;;;;;1896075;75;21149;-86
2023/08/06 03:31:12;;;;;;;1.60;0.50;;;18.80;99.90;;;;;;1905336;75;21149;-86
2023/08/06 03:34:05;;;;;;;0.78;0.40;;;18.90;99.90;;;;;;1902000;75;21113;-86
2023/08/06 03:36:56;;;;;;;0.85;0.40;;;18.80;99.90;;;;;;1898599;75;21106;-86
2023/08/06 03:39:47;;;;;;;1.87;0.50;;;18.90;99.90;;;;;;1892089;73;21159;-87
2023/08/06 03:42:38;;;;;;;1.27;0.55;;;18.80;99.90;;;;;;1893805;74;22179;-86
2023/08/06 03:45:30;;;;;;;1.50;0.47;;;18.80;99.90;;;;;;1893450;75;21163;-86
2023/08/06 03:48:22;;;;;;;1.77;0.50;;;18.90;99.90;;;;;;1902258;75;21054;-85
2023/08/06 03:51:13;;;;;;;1.25;0.40;;;18.90;99.90;;;;;;1908969;75;21104;-86
2023/08/06 03:54:05;;;;;;;2.30;0.65;;;18.90;99.90;;;;;;1879032;75;21169;-85
2023/08/06 03:56:57;;;;;;;2.05;0.60;;;19.00;99.90;;;;;;1913606;75;21189;-87
2023/08/06 04:02:27;;;;;;;2.25;0.80;;;18.90;99.90;;;;;;1945164;72;22198;-86
2023/08/06 04:05:19;;;;;;;0.85;0.40;;;18.80;99.90;;;;;;1909664;75;21102;-85
2023/08/06 04:08:11;;;;;;;2.77;0.80;;;18.80;99.90;;;;;;1912978;75;21113;-86
2023/08/06 04:11:03;;;;;;;1.77;0.50;;;18.70;99.90;;;;;;1915589;74;21168;-84
2023/08/06 04:13:55;;;;;;;3.00;0.70;;;18.70;99.90;;;;;;1894245;75;21097;-87
2023/08/06 04:16:48;;;;;;;2.70;0.60;;;18.50;99.90;;;;;;1902114;75;21122;-84
2023/08/06 04:19:39;;;;;;;2.95;0.60;;;18.50;99.90;;;;;;1901907;75;21163;-85
2023/08/06 04:25:10;;;;;;;3.10;0.62;;;18.30;99.90;;;;;;1940616;72;22258;-86
2023/08/06 04:28:01;;;;;;;3.27;0.75;;;18.30;99.90;;;;;;1945464;73;21125;-86
2023/08/06 04:30:53;;;;;;;4.40;1.00;;;18.30;99.90;;;;;;1924412;73;21118;-83
2023/08/06 04:33:45;;;;;;;2.00;0.70;;;18.30;99.90;;;;;;1937776;73;21118;-89
2023/08/06 04:39:15;;;;;;;4.60;1.30;;;18.20;99.90;;;;;;1946069;72;22225;-85
2023/08/06 04:42:08;;;;;;;4.60;0.85;;;18.20;99.90;;;;;;1906796;75;21184;-86
2023/08/06 04:44:59;;;;;;;2.25;0.85;;;18.20;99.90;;;;;;1887887;75;21109;-87
2023/08/06 04:47:50;;;;;;;2.65;0.70;;;18.10;99.90;;;;;;1883402;76;21106;-85
2023/08/06 04:50:45;;;;;;;5.35;0.82;;;18.20;99.90;;;;;;1906451;75;21503;-86
2023/08/06 04:53:37;;;;;;;3.83;1.05;;;18.10;99.90;;;;;;1900775;75;21129;-87
2023/08/06 04:56:29;;;;;;;3.22;0.95;;;18.20;99.90;;;;;;1889079;75;21110;-86
2023/08/06 05:02:05;;;;;;;5.40;1.35;;;18.10;99.90;;;;;;1923298;72;39039;-86
2023/08/06 05:07:35;;;;;;;4.62;0.98;;;18.10;99.90;;;;;;1932751;72;22210;-86
2023/08/06 05:13:06;;;;;;;7.53;1.50;;;18.00;99.90;;;;;;1930926;72;22154;-87
2023/08/06 05:15:57;;;;;;;2.98;0.93;;;18.00;99.90;;;;;;1892011;75;21571;-87
2023/08/06 05:18:48;;;;;;;4.75;1.17;;;18.00;99.90;;;;;;1896600;75;21636;-86
2023/08/06 05:21:40;;;;;;;2.52;0.55;;;18.00;99.90;;;;;;1893904;75;21184;-87
2023/08/06 05:27:10;;;;;;;4.97;1.10;;;18.00;99.90;;;;;;1944178;72;22241;-84
2023/08/06 05:30:01;;;;;;;3.17;1.00;;;17.90;99.90;;;;;;1934112;73;21132;-85
2023/08/06 05:32:53;;;;;;;4.90;1.05;;;17.90;99.90;;;;;;1923118;73;21187;-83
2023/08/06 05:38:23;;;;;;;4.87;1.25;;;17.90;99.90;;;;;;1945700;72;22197;-84
2023/08/06 05:41:15;;;;;;;3.92;1.20;;;17.90;99.90;;;;;;1919246;73;21106;-87
2023/08/06 05:44:06;;;;;;;4.15;1.47;;;17.90;99.90;;;;;;1916219;75;21569;-87
2023/08/06 05:46:58;;;;;;;4.37;0.93;;;17.80;99.90;;;;;;1929459;73;21063;-88
2023/08/06 05:49:49;;;;;;;2.98;0.98;;;17.80;99.90;;;;;;1932789;73;21126;-88
2023/08/06 05:52:41;;;;;;;5.20;1.22;;;17.90;99.90;;;;;;1916707;73;21101;-88
2023/08/06 05:55:32;;;;;;;5.87;1.10;;;17.90;99.90;;;;;;1933367;73;21151;-87
2023/08/06 05:58:28;;;;;;;2.45;0.62;;;17.90;99.90;;;;;;1926556;73;21160;-86
2023/08/06 06:01:17;;;;;;;5.92;1.05;;;17.90;99.90;;;;;;1927618;73;21123;-88
2023/08/06 06:04:08;;;;;;;6.67;1.00;;;17.90;99.90;;;;;;1916331;75;21257;-87
2023/08/06 06:06:59;;;;;;;2.60;0.80;;;17.90;99.90;;;;;;1916312;73;21164;-87
2023/08/06 06:09:50;;;;;;;4.28;1.10;;;17.90;99.90;;;;;;1921002;73;21449;-85
2023/08/06 06:12:43;;;;;;;5.37;1.20;;;17.80;99.90;;;;;;1918946;73;21094;-87
2023/08/06 06:15:34;;;;;;;4.12;0.95;;;17.90;99.90;;;;;;1936627;73;21145;-86
2023/08/06 06:18:26;;;;;;;5.20;1.07;;;17.90;99.90;;;;;;1919512;73;21137;-87
2023/08/06 06:21:17;;;;;;;4.95;1.00;;;17.90;99.90;;;;;;1915639;74;21171;-84
2023/08/06 06:24:08;;;;;;;3.00;0.98;;;17.90;99.90;;;;;;1926012;73;21106;-88
2023/08/06 06:27:00;;;;;;;7.58;1.37;;;17.90;99.90;;;;;;1916649;73;21117;-85
2023/08/06 06:29:52;;;;;;;5.08;1.17;;;17.90;99.90;;;;;;1917089;73;21199;-89
2023/08/06 06:35:23;;;;;;;6.50;1.22;;;17.80;99.90;;;;;;1942049;72;22258;-85
2023/08/06 06:38:14;;;;;;;6.15;1.47;;;17.70;99.90;;;;;;1904663;75;21180;-87
2023/08/06 06:41:05;;;;;;;5.05;0.95;;;17.80;99.90;;;;;;1901381;75;21240;-87
2023/08/06 06:43:56;;;;;;;8.05;1.40;;;17.80;99.90;;;;;;1901039;75;21144;-86
2023/08/06 06:46:49;;;;;;;7.50;1.20;;;17.80;99.90;;;;;;1915028;75;21128;-84
2023/08/06 06:52:19;;;;;;;3.25;0.98;;;17.30;99.90;;;;;;1929991;72;22301;-87
2023/08/06 06:55:11;;;;;;;3.45;1.00;;;17.00;99.90;;;;;;1927353;73;21115;-86
2023/08/06 06:58:02;;;;;;;3.98;0.88;;;17.00;99.90;;;;;;1913416;73;21086;-86
2023/08/06 07:00:53;;;;;;;8.05;1.30;;;17.00;99.90;;;;;;1931247;73;21128;-89
2023/08/06 07:03:45;;;;;;;3.33;0.82;;;17.00;99.90;;;;;;1910470;73;21118;-88
2023/08/06 07:09:18;;;;;;;2.20;0.50;;;17.20;99.90;;;;;;1928746;72;22271;-86
2023/08/06 07:12:12;;;;;;;5.15;0.70;;;17.20;99.90;;;;;;1882234;75;21057;-87
2023/08/06 07:15:04;;;;;;;5.22;1.20;;;17.20;99.90;;;;;;1888553;75;21171;-87
2023/08/06 07:17:55;;;;;;;3.22;0.98;;;17.10;99.90;;;;;;1884000;75;21136;-87
2023/08/06 07:20:51;;;;;;;4.03;0.80;;;17.10;99.90;;;;;;1902633;75;21118;-88
2023/08/06 07:23:42;;;;;;;4.95;0.80;;;17.10;99.90;;;;;;1896298;74;21180;-87
2023/08/06 07:26:33;;;;;;;3.05;0.60;;;17.00;99.90;;;;;;1904088;74;21141;-86
2023/08/06 07:29:24;;;;;;;3.30;0.70;;;17.00;99.90;;;;;;1895165;75;21172;-87
2023/08/06 07:34:59;;;;;;;4.33;0.90;;;17.00;99.90;;;;;;1933020;72;22328;-83
2023/08/06 07:37:48;;;;;;;4.42;1.00;;;16.90;99.90;;;;;;1891005;75;21171;-86
2023/08/06 07:40:40;;;;;;;3.70;0.75;;;16.90;99.90;;;;;;1907168;74;21171;-87
2023/08/06 07:43:31;;;;;;;3.12;0.62;;;17.00;99.90;;;;;;1895995;74;21172;-86
2023/08/06 07:49:17;;;;;;;2.15;0.60;;;17.00;99.90;;;;;;1943660;72;22126;-86
2023/08/06 07:52:09;;;;;;;1.35;0.40;;;17.10;99.90;;;;;;1919652;73;21103;-85
2023/08/06 07:55:04;;;;;;;1.82;0.47;;;17.10;99.90;;;;;;1919331;73;21094;-85
2023/08/06 07:57:53;;;;;;;2.30;0.50;;;17.20;99.90;;;;;;1916313;73;21056;-88
2023/08/06 08:03:24;;;;;;;3.62;0.80;;;17.30;99.90;;;;;;1945029;72;22174;-85
2023/08/06 08:06:15;;;;;;;5.12;1.20;;;17.30;99.90;;;;;;1907812;75;21604;-83
2023/08/06 08:09:07;;;;;;;4.05;1.15;;;17.30;99.90;;;;;;1896012;75;21160;-86
2023/08/06 08:15:31;;;;;;;3.40;0.80;;;17.20;99.90;;;;;;1929023;74;22201;-85
2023/08/06 08:18:23;;;;;;;3.55;0.53;;;17.30;99.90;;;;;;1884192;75;21739;-85
2023/08/06 08:21:14;;;;;;;4.80;0.88;;;17.40;99.90;;;;;;1925737;74;21133;-88
2023/08/06 08:24:06;;;;;;;2.60;0.50;;;17.30;99.90;;;;;;1931038;73;21181;-85
2023/08/06 08:26:58;;;;;;;2.15;0.60;;;17.30;99.90;;;;;;1925677;73;21139;-86
2023/08/06 08:32:30;;;;;;;6.10;0.80;;;17.30;99.90;;;;;;1952686;72;22681;-87
2023/08/06 08:38:04;;;;;;;2.87;0.53;;;17.50;99.90;;;;;;1914135;72;22274;-86
2023/08/06 08:40:56;;;;;;;3.87;0.70;;;17.50;99.90;;;;;;1911512;75;21557;-86
2023/08/06 08:43:51;;;;;;;3.10;0.47;;;17.50;99.90;;;;;;1907639;75;21054;-83
2023/08/06 08:46:43;;;;;;;1.77;0.42;;;17.50;99.90;;;;;;1894175;75;21166;-85
2023/08/06 08:49:36;;;;;;;3.22;0.90;;;17.50;99.90;;;;;;1910132;74;21130;-84
2023/08/06 08:52:30;;;;;;;2.67;0.62;;;17.50;99.90;;;;;;1915143;75;21125;-85
2023/08/06 08:55:24;;;;;;;1.77;0.33;;;17.60;99.90;;;;;;1910183;75;21121;-85
2023/08/06 08:58:16;;;;;;;1.95;0.47;;;17.70;99.90;;;;;;1905342;75;22036;-86
2023/08/06 09:01:10;;;;;;;2.80;0.75;;;17.80;99.90;;;;;;1900839;75;21098;-85
2023/08/06 09:04:02;;;;;;;2.72;0.60;;;17.90;99.90;;;;;;1886248;75;21160;-85
2023/08/06 09:06:55;;;;;;;1.32;0.47;;;18.00;99.90;;;;;;1911578;75;21114;-86
2023/08/06 09:12:25;;;;;;;2.75;0.57;;;17.60;99.90;;;;;;1942814;72;22280;-84
2023/08/06 09:15:16;;;;;;;3.85;0.30;;;17.40;99.90;;;;;;1883898;75;21118;-84
2023/08/06 09:18:12;;;;;;;2.08;0.47;;;17.40;99.90;;;;;;1885816;75;21125;-87
2023/08/06 09:21:04;;;;;;;1.75;0.40;;;17.20;99.90;;;;;;1901438;75;21130;-87
2023/08/06 09:23:56;;;;;;;2.83;0.55;;;17.30;99.90;;;;;;1895154;75;21217;-86
2023/08/06 09:29:32;;;;;;;1.82;0.53;;;17.30;99.90;;;;;;1940067;72;22222;-85
2023/08/06 09:37:51;;;;;;;2.12;0.70;;;17.50;99.90;;;;;;1944385;72;22536;-85
2023/08/06 09:40:42;;;;;;;2.47;0.45;;;17.60;99.90;;;;;;1918593;73;21102;-87
2023/08/06 09:46:16;;;;;;;1.30;0.45;;;18.00;99.90;;;;;;1934466;72;22325;-87
2023/08/06 09:49:09;;;;;;;2.52;0.55;;;18.20;99.90;;;;;;1934738;73;21168;-85
2023/08/06 09:52:01;;;;;;;1.72;0.55;;;18.30;99.90;;;;;;1947031;73;21209;-86
2023/08/06 09:54:54;;;;;;;1.57;0.30;;;18.40;99.90;;;;;;1932389;73;21102;-86
2023/08/06 10:00:31;;;;;;;2.05;0.55;;;18.80;99.90;;;;;;1944484;72;22235;-83
2023/08/06 10:03:22;;;;;;;1.25;0.40;;;18.60;99.90;;;;;;1877779;75;21267;-83
2023/08/06 10:06:14;;;;;;;1.77;0.30;;;18.60;99.90;;;;;;1893090;75;21175;-85
2023/08/06 10:09:06;;;;;;;2.42;0.47;;;18.50;99.90;;;;;;1896379;75;21151;-85
2023/08/06 10:11:59;;;;;;;0.53;0.28;;;18.50;99.90;;;;;;1909671;75;21211;-86
2023/08/06 10:14:52;;;;;;;1.70;0.40;;;18.60;99.90;;;;;;1909808;75;21111;-86
2023/08/06 10:20:26;;;;;;;0.98;0.25;;;18.60;99.90;;;;;;1952918;72;22412;-88
2023/08/06 10:23:20;;;;;;;2.75;0.33;;;18.70;99.90;;;;;;1885509;75;21156;-85
2023/08/06 10:26:10;;;;;;;1.82;0.23;;;18.60;99.90;;;;;;1901152;75;21089;-88
2023/08/06 10:29:02;;;;;;;1.10;0.20;;;18.50;99.90;;;;;;1896484;75;21176;-86
2023/08/06 10:34:58;;;;;;;0.85;0.37;;;18.50;99.90;;;;;;1941402;72;22108;-84
2023/08/06 10:37:49;;;;;;;2.00;0.30;;;18.50;99.90;;;;;;1911351;73;21151;-87
2023/08/06 10:40:43;;;;;;;1.17;0.30;;;18.60;99.90;;;;;;1902143;74;21534;-85
2023/08/06 10:46:28;;;;;;;1.62;0.40;;;18.50;99.90;;;;;;1924626;72;27986;-85
2023/08/06 10:49:20;;;;;;;1.75;0.37;;;18.60;99.90;;;;;;1930089;73;21098;-83
2023/08/06 10:52:11;;;;;;;0.65;0.23;;;18.70;99.90;;;;;;1934928;73;21091;-83
2023/08/06 10:55:02;;;;;;;1.50;0.40;;;18.80;99.90;;;;;;1925384;73;21339;-85
2023/08/06 10:57:55;;;;;;;0.70;0.30;;;18.70;99.90;;;;;;1939187;73;21100;-86
2023/08/06 11:00:46;;;;;;;0.80;0.20;;;18.70;99.90;;;;;;1932072;73;21247;-84
2023/08/06 11:03:38;;;;;;;0.53;0.10;;;18.60;99.90;;;;;;1918897;73;21133;-83
2023/08/06 11:06:30;;;;;;;0.30;0.20;;;18.70;99.90;;;;;;1937266;73;21145;-85
2023/08/06 11:09:22;;;;;;;0.50;0.20;;;18.80;99.90;;;;;;1916448;75;21142;-86
2023/08/06 11:12:15;;;;;;;0.72;0.35;;;18.80;99.90;;;;;;1916042;75;21110;-86
2023/08/06 11:17:44;;;;;;;1.25;0.20;;;18.90;99.90;;;;;;1930907;72;22279;-84
2023/08/06 11:23:15;;;;;;;0.62;0.25;;;19.00;99.90;;;;;;1951696;72;22172;-85
2023/08/06 11:26:07;;;;;;;0.98;0.40;;;19.10;99.90;;;;;;1919275;73;21633;-88
2023/08/06 11:28:58;;;;;;;0.50;0.20;;;19.10;99.90;;;;;;1932109;73;21091;-89
2023/08/06 11:31:50;;;;;;;1.00;0.35;;;19.00;99.90;;;;;;1929272;73;21153;-84
2023/08/06 11:37:25;;;;;;;1.62;0.40;;;19.20;99.90;;;;;;1921229;72;22199;-85
2023/08/06 11:40:17;;;;;;;1.22;0.30;;;19.40;99.90;;;;;;1909077;75;21611;-89
2023/08/06 11:43:09;;;;;;;1.40;0.25;;;19.60;99.90;;;;;;1913349;75;21863;-83
2023/08/06 11:46:01;;;;;;;1.40;0.20;;;19.60;99.90;;;;;;1902076;75;21113;-83
2023/08/06 11:48:57;;;;;;;1.47;0.45;;;19.40;99.90;;;;;;1904895;75;21214;-83
2023/08/06 11:51:48;;;;;;;0.50;0.20;;;19.50;99.90;;;;;;1904143;75;21175;-81
2023/08/06 11:54:39;;;;;;;2.80;1.30;;;19.60;99.90;;;;;;1899960;75;21180;-79
2023/08/06 11:57:34;;;;;;;0.70;0.23;;;19.70;99.90;;;;;;1905845;75;21119;-78
2023/08/06 12:00:26;;;;;;;1.60;0.40;;;19.80;99.90;;;;;;1883611;76;21217;-85
2023/08/06 12:03:20;;;;;;;0.65;0.30;;;19.90;99.90;;;;;;1905884;75;21179;-86
2023/08/06 12:06:12;;;;;;;1.55;0.30;;;20.00;99.90;;;;;;1901638;75;21126;-87
2023/08/06 12:09:04;;;;;;;0.10;0.10;;;19.90;99.90;;;;;;1903523;75;21079;-82
2023/08/06 12:11:56;;;;;;;1.15;0.20;;;19.70;99.90;;;;;;1905082;75;21177;-81
2023/08/06 12:14:47;;;;;;;0.20;0.20;;;19.60;99.90;;;;;;1905054;75;21133;-80
2023/08/06 12:17:39;;;;;;;0.55;0.23;;;19.50;99.90;;;;;;1901880;75;21046;-84
2023/08/06 12:20:31;;;;;;;0.25;0.20;;;19.70;99.90;;;;;;1883101;76;21141;-84
2023/08/06 12:23:23;;;;;;;0.40;0.20;;;19.90;99.90;;;;;;1905610;75;21196;-83
2023/08/06 12:26:14;;;;;;;0.50;0.20;;;20.10;99.90;;;;;;1885823;76;21112;-83
2023/08/06 12:29:06;;;;;;;0.65;0.30;;;20.10;99.90;;;;;;1884892;76;21131;-80
2023/08/06 12:31:59;;;;;;;0.88;0.30;;;20.30;99.90;;;;;;1898639;75;21138;-84
2023/08/06 12:34:50;;;;;;;1.67;0.20;;;20.50;99.90;;;;;;1884171;75;21140;-83
2023/08/06 12:37:45;;;;;;;0.40;0.20;;;20.30;99.90;;;;;;1882226;75;21154;-82
2023/08/06 12:40:36;;;;;;;0.85;0.20;;;20.30;99.90;;;;;;1893465;75;21147;-78
2023/08/06 12:43:32;;;;;;;0.20;0.10;;;20.40;99.90;;;;;;1898658;75;21561;-83
2023/08/06 12:46:24;;;;;;;1.42;0.30;;;20.30;99.90;;;;;;1885037;75;21165;-83
2023/08/06 12:49:15;;;;;;;0.35;0.23;;;20.30;99.90;;;;;;1882698;76;21083;-83
2023/08/06 12:52:09;;;;;;;0.47;0.25;;;20.30;99.90;;;;;;1882897;76;21211;-85
2023/08/06 12:55:00;;;;;;;0.25;0.15;;;20.10;99.90;;;;;;1902870;75;21124;-83
2023/08/06 12:57:51;;;;;;;1.52;0.33;;;20.00;99.90;;;;;;1882681;76;21158;-82
2023/08/06 13:00:44;;;;;;;1.22;0.47;;;19.80;99.90;;;;;;1914316;75;21140;-85
2023/08/06 13:03:35;;;;;;;0.47;0.25;;;19.80;99.90;;;;;;1893780;75;21702;-83
2023/08/06 13:06:27;;;;;;;1.27;0.30;;;19.80;99.90;;;;;;1894367;75;21130;-85
2023/08/06 13:09:19;;;;;;;0.62;0.30;;;19.70;99.90;;;;;;1882772;76;21137;-84
2023/08/06 13:12:11;;;;;;;0.98;0.40;;;19.60;99.90;;;;;;1894036;75;21129;-83
2023/08/06 13:15:02;;;;;;;1.12;0.30;;;19.60;99.90;;;;;;1887302;75;21141;-84
2023/08/06 13:17:56;;;;;;;0.55;0.30;;;19.70;99.90;;;;;;1904911;75;21158;-83
2023/08/06 13:20:49;;;;;;;1.20;0.30;;;19.70;99.90;;;;;;1900438;75;21125;-83
2023/08/06 13:23:40;;;;;;;1.80;0.30;;;19.90;99.90;;;;;;1882815;76;21063;-83
2023/08/06 13:26:32;;;;;;;2.67;0.20;;;20.00;99.90;;;;;;1904882;75;21240;-82
2023/08/06 13:29:24;;;;;;;0.62;0.40;;;20.20;99.90;;;;;;1904948;75;21190;-83
2023/08/06 13:32:15;;;;;;;0.88;0.23;;;20.50;99.90;;;;;;1902240;75;21126;-83
2023/08/06 13:35:07;;;;;;;1.37;0.40;;;20.70;99.90;;;;;;1883034;76;21105;-84
2023/08/06 13:37:58;;;;;;;2.12;0.40;;;21.00;99.90;;;;;;1886521;75;21140;-82
2023/08/06 13:40:50;;;;;;;2.15;0.47;;;20.70;99.90;;;;;;1869835;76;21133;-82
2023/08/06 13:43:41;;;;;;;2.15;0.30;;;20.60;99.90;;;;;;1868425;76;21125;-81
2023/08/06 13:46:32;;;;;;;2.05;0.40;;;20.80;99.90;;;;;;1858443;76;21114;-83
2023/08/06 13:49:23;;;;;;;1.50;0.40;;;20.70;99.90;;;;;;1858555;76;21140;-84
2023/08/06 13:52:15;;;;;;;0.60;0.30;;;20.60;99.90;;;;;;1885398;75;21069;-81
2023/08/06 13:55:09;;;;;;;1.52;0.50;;;20.70;99.90;;;;;;1874271;76;21196;-84
2023/08/06 13:58:00;;;;;;;2.00;0.40;;;21.00;99.90;;;;;;1864193;76;21155;-83
2023/08/06 14:00:52;;;;;;;2.15;0.40;;;21.30;99.90;;;;;;1848471;76;21210;-84
2023/08/06 14:03:44;;;;;;;0.23;0.20;;;21.50;99.90;;;;;;1876195;76;21117;-85
2023/08/06 14:06:35;;;;;;;1.37;0.30;;;22.10;99.90;;;;;;1859260;76;21129;-85
2023/08/06 14:09:26;;;;;;;0.45;0.20;;;22.10;99.90;;;;;;1862826;76;21627;-82
2023/08/06 14:12:18;;;;;;;0.68;0.33;;;22.30;99.90;;;;;;1870328;76;21141;-83
2023/08/06 14:15:13;;;;;;;0.53;0.30;;;22.30;99.90;;;;;;1851435;76;21078;-85
2023/08/06 14:18:04;;;;;;;0.80;0.30;;;22.10;99.90;;;;;;1834206;78;21139;-84
2023/08/06 14:20:56;;;;;;;0.62;0.20;;;22.20;99.90;;;;;;1867376;76;21175;-84
2023/08/06 14:23:47;;;;;;;0.37;0.20;;;22.00;99.90;;;;;;1861750;76;21102;-80
2023/08/06 14:29:17;;;;;;;0.70;0.30;;;22.50;99.90;;;;;;1935765;72;22206;-80
2023/08/06 14:32:09;;;;;;;1.77;0.40;;;22.20;99.90;;;;;;1904557;75;21106;-80
2023/08/06 14:35:00;;;;;;;1.42;0.60;;;22.20;99.90;;;;;;1895122;75;21117;-80
2023/08/06 14:37:52;;;;;;;1.57;0.42;;;21.90;99.90;;;;;;1885664;75;21142;-80
2023/08/06 14:43:26;;;;;;;1.70;0.40;;;23.00;99.90;;;;;;1940233;72;22599;-77
2023/08/06 14:46:18;;;;;;;1.12;0.40;;;23.20;99.90;;;;;;1907488;75;21188;-80
2023/08/06 14:49:09;;;;;;;0.65;0.23;;;23.20;99.90;;;;;;1906784;75;21641;-78
2023/08/06 14:52:01;;;;;;;0.85;0.30;;;23.30;99.90;;;;;;1881886;75;21387;-80
2023/08/06 14:54:55;;;;;;;0.90;0.37;;;23.60;99.90;;;;;;1899635;75;21125;-80
2023/08/06 14:57:45;;;;;;;0.68;0.30;;;22.90;99.90;;;;;;1900909;75;21083;-81
2023/08/06 15:03:16;;;;;;;1.22;0.47;;;22.60;99.90;;;;;;1927287;72;22227;-79
2023/08/06 15:06:07;;;;;;;0.60;0.30;;;23.20;99.90;;;;;;1892739;74;21134;-79
2023/08/06 15:09:00;;;;;;;0.60;0.35;;;23.20;99.90;;;;;;1904159;75;21108;-79
2023/08/06 15:11:51;;;;;;;0.55;0.33;;;22.60;99.90;;;;;;1888331;75;21148;-78
2023/08/06 15:14:42;;;;;;;1.25;0.40;;;21.90;99.90;;;;;;1893325;75;21090;-81
2023/08/06 15:17:33;;;;;;;1.70;0.60;;;21.70;99.90;;;;;;1902488;75;21236;-81
2023/08/06 15:20:25;;;;;;;2.47;0.40;;;21.60;99.90;;;;;;1902665;75;21138;-80
2023/08/06 15:23:16;;;;;;;0.70;0.33;;;21.50;99.90;;;;;;1898302;75;21097;-80
2023/08/06 15:26:08;;;;;;;1.02;0.50;;;21.40;99.90;;;;;;1902619;74;21077;-81
2023/08/06 15:29:00;;;;;;;2.15;0.50;;;21.60;99.90;;;;;;1886299;75;21145;-80
2023/08/06 15:31:51;;;;;;;0.98;0.50;;;21.30;99.90;;;;;;1904269;75;21568;-80
2023/08/06 15:34:42;;;;;;;2.05;0.40;;;21.30;99.90;;;;;;1911225;75;21114;-79
2023/08/06 15:37:34;;;;;;;0.75;0.35;;;21.60;99.90;;;;;;1914436;75;21123;-80
2023/08/06 15:40:27;;;;;;;1.80;0.60;;;21.40;99.90;;;;;;1885766;75;21125;-81
2023/08/06 15:43:18;;;;;;;0.60;0.30;;;21.10;99.90;;;;;;1886261;75;21139;-80
2023/08/06 15:48:48;;;;;;;0.88;0.45;;;22.10;99.90;;;;;;1949090;72;22200;-81
2023/08/06 15:54:18;;;;;;;0.55;0.40;;;22.90;99.90;;;;;;1941864;72;22695;-80
2023/08/06 15:57:10;;;;;;;0.88;0.30;;;24.10;99.90;;;;;;1924115;73;21107;-81
2023/08/06 16:00:01;;;;;;;1.37;0.40;;;23.90;99.90;;;;;;1906022;74;21095;-81
2023/08/06 16:02:54;;;;;;;0.30;0.30;;;24.10;99.30;;;;;;1911604;74;21106;-81
2023/08/06 16:08:24;;;;;;;1.00;0.50;;;21.90;99.90;;;;;;1931764;72;22166;-80
2023/08/06 16:11:15;;;;;;;1.02;0.30;;;21.70;99.90;;;;;;1895228;75;21204;-79
2023/08/06 16:14:06;;;;;;;0.80;0.40;;;21.30;99.90;;;;;;1885645;75;21098;-81
2023/08/06 16:16:58;;;;;;;0.65;0.40;;;21.20;99.90;;;;;;1892470;75;21160;-81
2023/08/06 16:19:50;;;;;;;1.07;0.40;;;21.10;99.90;;;;;;1897242;75;21066;-80
2023/08/06 16:22:41;;;;;;;0.78;0.35;;;20.90;99.90;;;;;;1888232;75;21126;-80
2023/08/06 16:25:32;;;;;;;0.55;0.30;;;21.50;99.90;;;;;;1885816;75;21118;-80
2023/08/06 16:28:23;;;;;;;1.60;0.95;;;23.40;99.90;;;;;;1901841;75;21179;-80
2023/08/06 16:33:53;;;;;;;1.37;0.50;;;23.50;97.70;;;;;;1948985;72;22174;-81
2023/08/06 16:39:29;;;;;;;0.85;0.30;;;24.00;98.90;;;;;;1945803;72;22237;-81
2023/08/06 16:42:20;;;;;;;1.40;0.53;;;25.10;97.40;;;;;;1915018;74;21059;-81
2023/08/06 16:45:12;;;;;;;0.93;0.50;;;25.70;96.40;;;;;;1918425;74;21146;-81
2023/08/06 16:48:03;;;;;;;1.60;0.78;;;25.80;95.10;;;;;;1916552;74;21104;-80
2023/08/06 16:50:55;;;;;;;0.60;0.50;;;25.60;93.20;;;;;;1931361;74;21627;-82
2023/08/06 16:53:46;;;;;;;0.70;0.33;;;25.40;92.60;;;;;;1913685;74;21090;-81
2023/08/06 16:56:37;;;;;;;1.35;0.47;;;25.50;92.00;;;;;;1913003;73;21120;-82
2023/08/06 17:02:07;;;;;;;1.40;0.50;;;25.90;92.00;;;;;;1926605;72;22639;-82
2023/08/06 17:04:58;;;;;;;1.40;0.57;;;25.60;91.60;;;;;;1912957;74;21198;-82
2023/08/06 17:07:51;;;;;;;1.05;0.55;;;25.20;91.40;;;;;;1890732;75;21095;-82
2023/08/06 17:13:24;;;;;;;1.60;0.60;;;24.80;91.10;;;;;;1916662;72;22255;-82
2023/08/06 17:16:16;;;;;;;1.57;0.53;;;23.70;92.70;;;;;;1902492;75;21093;-81